Time;durP1;ratioP1;P1;durP2;ratioP2;P2;SDS_P1;SDS_P2;PMS_P1;PMS_P2;Temp;Humidity;BMP_temperature;BMP_pressure;BME280_temperature;BME280_humidity;BME280_pressure;Samples;Min_cycle;Max_cycle;Signal;HPM_P1;HPM_P2
2024/02/06 00:01:34;;;;;;;10.10;5.30;;;9.50;1.00;;;;;;5010296;28;20204;-86
2024/02/06 00:04:00;;;;;;;13.77;6.03;;;9.50;99.90;;;;;;5011335;28;20199;-87
2024/02/06 00:06:25;;;;;;;9.60;5.20;;;9.50;99.90;;;;;;5011597;28;20188;-87
2024/02/06 00:08:51;;;;;;;8.80;5.37;;;9.50;99.90;;;;;;5010689;28;20200;-86
2024/02/06 00:11:16;;;;;;;8.30;5.03;;;9.60;99.90;;;;;;5010693;28;20526;-87
2024/02/06 00:13:42;;;;;;;9.63;5.90;;;9.60;99.90;;;;;;5010760;28;20259;-86
2024/02/06 00:16:12;;;;;;;12.07;6.40;;;9.60;99.90;;;;;;5011002;28;20185;-86
2024/02/06 00:18:38;;;;;;;14.00;5.67;;;9.60;99.90;;;;;;5008090;28;20630;-86
2024/02/06 00:21:04;;;;;;;11.90;5.53;;;9.60;99.90;;;;;;5009743;28;20475;-86
2024/02/06 00:23:29;;;;;;;8.77;4.90;;;9.70;99.90;;;;;;5003994;28;20218;-88
2024/02/06 00:25:55;;;;;;;14.10;5.40;;;9.70;99.90;;;;;;5010680;28;20188;-86
2024/02/06 00:28:23;;;;;;;6.07;4.30;;;9.70;99.90;;;;;;5009557;28;20247;-86
2024/02/06 00:30:49;;;;;;;7.27;4.87;;;9.70;99.90;;;;;;5005902;28;20430;-88
2024/02/06 00:33:15;;;;;;;9.20;5.43;;;9.70;99.90;;;;;;5010608;28;20461;-87
2024/02/06 00:35:40;;;;;;;8.43;5.10;;;9.70;99.90;;;;;;5010444;28;20282;-86
2024/02/06 00:38:07;;;;;;;9.40;4.77;;;9.70;99.90;;;;;;5007632;28;20184;-89
2024/02/06 00:40:32;;;;;;;7.70;4.60;;;9.80;99.90;;;;;;5008277;28;20283;-86
2024/02/06 00:42:58;;;;;;;6.47;4.50;;;9.80;56.50;;;;;;5009289;28;20467;-87
2024/02/06 00:45:23;;;;;;;9.70;4.93;;;9.80;23.50;;;;;;5009724;28;20252;-88
2024/02/06 00:47:49;;;;;;;9.60;5.20;;;9.80;10.10;;;;;;5007009;28;20256;-86
2024/02/06 00:50:16;;;;;;;9.77;5.30;;;9.80;1.00;;;;;;5009090;28;20209;-88
2024/02/06 00:52:42;;;;;;;8.33;4.83;;;9.80;1.00;;;;;;5004320;28;20439;-86
2024/02/06 00:55:07;;;;;;;10.33;4.90;;;9.80;1.00;;;;;;5000780;28;20453;-86
2024/02/06 00:57:33;;;;;;;13.03;4.80;;;9.80;1.00;;;;;;5006753;28;20208;-86
2024/02/06 00:59:59;;;;;;;9.10;5.03;;;9.90;1.00;;;;;;5009400;28;20259;-86
2024/02/06 01:02:25;;;;;;;10.57;5.10;;;9.90;1.00;;;;;;5007316;28;20600;-86
2024/02/06 01:04:51;;;;;;;11.43;5.03;;;9.80;1.00;;;;;;5010056;28;20208;-86
2024/02/06 01:07:18;;;;;;;11.47;5.03;;;9.90;1.00;;;;;;5009281;28;20435;-87
2024/02/06 01:09:44;;;;;;;11.47;4.77;;;9.80;1.00;;;;;;5010164;28;20435;-85
2024/02/06 01:12:10;;;;;;;10.10;4.50;;;9.80;1.00;;;;;;5014082;28;20522;-87
2024/02/06 01:14:36;;;;;;;10.83;4.97;;;9.90;1.00;;;;;;5011440;28;20475;-89
2024/02/06 01:17:02;;;;;;;10.80;4.50;;;9.80;1.00;;;;;;5005897;28;20188;-86
2024/02/06 01:19:28;;;;;;;11.53;4.87;;;9.90;1.00;;;;;;5014453;28;20415;-85
2024/02/06 01:21:53;;;;;;;6.13;5.30;;;9.90;1.00;;;;;;5012282;28;20481;-87
2024/02/06 01:24:19;;;;;;;9.63;5.00;;;9.80;1.00;;;;;;5008963;28;20199;-86
2024/02/06 01:26:44;;;;;;;12.83;5.60;;;9.80;1.00;;;;;;5009983;28;20207;-87
2024/02/06 01:29:10;;;;;;;9.73;5.10;;;9.80;1.00;;;;;;5013556;28;20185;-86
2024/02/06 01:31:35;;;;;;;11.23;5.70;;;9.80;1.00;;;;;;5012328;28;20271;-88
2024/02/06 01:34:01;;;;;;;9.47;4.50;;;9.80;1.00;;;;;;5009692;28;20204;-86
2024/02/06 01:36:27;;;;;;;11.40;5.00;;;9.80;1.00;;;;;;5009771;28;20184;-86
2024/02/06 01:38:52;;;;;;;6.83;5.43;;;9.80;1.00;;;;;;5013753;28;20195;-86
2024/02/06 01:41:18;;;;;;;10.83;4.70;;;9.80;1.00;;;;;;5012655;28;20557;-87
2024/02/06 01:43:43;;;;;;;11.80;4.27;;;9.80;1.00;;;;;;5013110;28;20200;-87
2024/02/06 01:46:10;;;;;;;10.37;4.70;;;9.80;1.00;;;;;;5007916;28;20171;-86
2024/02/06 01:48:36;;;;;;;10.30;5.50;;;9.80;1.00;;;;;;5013100;28;20188;-89
2024/02/06 01:51:03;;;;;;;10.37;5.13;;;9.80;1.00;;;;;;5013955;28;20442;-86
2024/02/06 01:53:30;;;;;;;8.43;5.57;;;9.80;1.00;;;;;;5008968;28;20466;-86
2024/02/06 01:55:56;;;;;;;9.03;5.00;;;9.80;1.00;;;;;;5012707;28;20477;-87
2024/02/06 01:58:22;;;;;;;9.23;4.93;;;9.80;1.00;;;;;;5012942;28;20438;-86
2024/02/06 02:00:48;;;;;;;13.97;5.10;;;9.80;1.00;;;;;;5007969;28;20204;-86
2024/02/06 02:03:14;;;;;;;11.23;5.23;;;9.80;1.00;;;;;;5013171;28;20484;-86
2024/02/06 02:05:42;;;;;;;9.10;4.40;;;9.80;1.00;;;;;;5012962;28;20466;-89
2024/02/06 02:08:08;;;;;;;8.20;4.73;;;9.90;1.00;;;;;;5013035;28;20262;-87
2024/02/06 02:10:34;;;;;;;12.93;4.97;;;9.90;1.00;;;;;;5012250;28;20439;-87
2024/02/06 02:12:59;;;;;;;13.60;4.93;;;9.90;99.90;;;;;;5011092;28;20208;-90
2024/02/06 02:15:25;;;;;;;12.23;4.80;;;9.90;99.90;;;;;;5012742;28;20192;-88
2024/02/06 02:17:51;;;;;;;10.30;4.50;;;9.90;99.90;;;;;;5011357;28;20643;-86
2024/02/06 02:20:17;;;;;;;8.70;4.50;;;9.90;99.90;;;;;;5012089;28;20212;-86
2024/02/06 02:22:43;;;;;;;12.90;5.13;;;9.90;1.00;;;;;;5012202;28;20453;-87
2024/02/06 02:25:09;;;;;;;10.10;5.00;;;10.00;1.00;;;;;;5011315;28;21700;-88
2024/02/06 02:27:35;;;;;;;14.53;4.70;;;10.00;1.00;;;;;;5012571;28;20689;-86
2024/02/06 02:30:00;;;;;;;11.57;4.57;;;10.00;1.00;;;;;;5012046;28;20188;-86
2024/02/06 02:32:28;;;;;;;11.53;4.00;;;10.00;1.00;;;;;;5011774;28;20446;-86
2024/02/06 02:34:53;;;;;;;8.67;3.87;;;10.00;1.00;;;;;;5012549;28;20215;-87
2024/02/06 02:37:19;;;;;;;7.40;3.60;;;10.00;99.90;;;;;;5011484;28;20804;-88
2024/02/06 02:39:44;;;;;;;7.83;5.40;;;10.00;99.90;;;;;;5012801;28;20196;-86
2024/02/06 02:42:10;;;;;;;8.60;3.57;;;10.10;95.40;;;;;;5012554;28;20200;-87
2024/02/06 02:44:36;;;;;;;10.67;4.20;;;10.10;1.00;;;;;;5011172;28;20208;-86
2024/02/06 02:47:01;;;;;;;7.70;3.70;;;10.10;1.00;;;;;;5005922;28;20215;-88
2024/02/06 02:49:27;;;;;;;8.93;5.30;;;10.10;1.00;;;;;;5011898;28;20207;-87
2024/02/06 02:51:53;;;;;;;7.70;4.00;;;10.10;1.00;;;;;;5009353;28;20470;-88
2024/02/06 02:54:19;;;;;;;8.63;4.43;;;10.10;4.80;;;;;;5004777;28;20227;-88
2024/02/06 02:56:45;;;;;;;12.73;4.10;;;10.20;1.00;;;;;;5010035;28;20203;-86
2024/02/06 02:59:11;;;;;;;7.23;4.20;;;10.20;1.00;;;;;;5011995;28;20438;-89
2024/02/06 03:01:37;;;;;;;9.43;4.13;;;10.20;1.00;;;;;;5012428;28;20200;-87
2024/02/06 03:04:02;;;;;;;7.77;3.53;;;10.20;1.00;;;;;;5011035;28;20205;-88
2024/02/06 03:06:28;;;;;;;6.90;4.77;;;10.20;99.90;;;;;;5010972;28;20180;-87
2024/02/06 03:08:54;;;;;;;6.33;3.70;;;10.20;99.90;;;;;;5011290;28;20255;-87
2024/02/06 03:11:20;;;;;;;9.13;4.10;;;10.20;99.90;;;;;;5011511;28;20192;-86
2024/02/06 03:13:46;;;;;;;11.27;3.90;;;10.20;99.90;;;;;;5009199;28;20463;-86
2024/02/06 03:16:12;;;;;;;10.77;4.20;;;10.20;99.90;;;;;;5010664;28;20208;-87
2024/02/06 03:18:38;;;;;;;8.63;3.60;;;10.20;1.00;;;;;;5008590;28;20447;-88
2024/02/06 03:21:04;;;;;;;10.40;4.53;;;10.20;1.00;;;;;;5008650;28;20204;-88
2024/02/06 03:23:30;;;;;;;10.00;4.40;;;10.20;1.00;;;;;;5012529;28;20489;-87
2024/02/06 03:25:55;;;;;;;8.67;4.87;;;10.20;1.00;;;;;;5012302;28;20506;-87
2024/02/06 03:28:21;;;;;;;16.30;4.60;;;10.20;95.10;;;;;;5011911;28;20184;-86
2024/02/06 03:30:46;;;;;;;8.20;4.10;;;10.20;99.90;;;;;;5007428;28;20211;-86
2024/02/06 03:33:12;;;;;;;8.53;4.43;;;10.20;99.90;;;;;;5011116;28;20211;-87
2024/02/06 03:35:38;;;;;;;13.40;4.07;;;10.20;1.00;;;;;;5009160;28;20259;-87
2024/02/06 03:38:04;;;;;;;10.27;4.07;;;10.20;1.00;;;;;;5012899;28;20196;-87
2024/02/06 03:40:31;;;;;;;11.17;4.37;;;10.20;1.00;;;;;;5011567;28;20462;-87
2024/02/06 03:42:57;;;;;;;7.13;3.93;;;10.20;99.90;;;;;;5011874;28;20489;-86
2024/02/06 03:45:22;;;;;;;8.20;4.10;;;10.20;1.00;;;;;;5012168;28;20455;-87
2024/02/06 03:47:48;;;;;;;12.00;4.33;;;10.20;1.00;;;;;;5009857;28;20184;-87
2024/02/06 03:50:13;;;;;;;10.83;4.70;;;10.20;1.00;;;;;;5010253;28;20188;-86
2024/02/06 03:52:39;;;;;;;11.70;4.70;;;10.20;1.00;;;;;;5004610;28;20199;-86
2024/02/06 03:55:06;;;;;;;7.60;4.60;;;10.20;1.00;;;;;;5006786;28;20184;-89
2024/02/06 03:57:33;;;;;;;7.73;4.40;;;10.20;1.00;;;;;;5014032;28;20184;-86
2024/02/06 03:59:59;;;;;;;11.90;4.60;;;10.20;85.60;;;;;;5012648;28;20439;-87
2024/02/06 04:02:25;;;;;;;15.43;4.83;;;10.20;99.90;;;;;;5013386;28;20462;-86
2024/02/06 04:04:51;;;;;;;5.93;3.90;;;10.20;1.00;;;;;;5014078;28;20427;-86
2024/02/06 04:07:17;;;;;;;9.40;4.40;;;10.20;1.00;;;;;;5013534;28;20439;-86
2024/02/06 04:09:43;;;;;;;13.70;4.50;;;10.20;1.00;;;;;;5029167;28;20439;-87
2024/02/06 04:12:10;;;;;;;8.40;5.00;;;10.30;1.00;;;;;;5012436;28;20804;-86
2024/02/06 04:14:39;;;;;;;11.70;4.73;;;10.30;1.00;;;;;;5013891;28;20458;-86
2024/02/06 04:17:05;;;;;;;11.27;4.90;;;10.30;1.00;;;;;;5013196;28;20439;-86
2024/02/06 04:19:35;;;;;;;10.30;4.13;;;10.30;1.00;;;;;;5012605;28;20514;-86
2024/02/06 04:22:02;;;;;;;7.93;4.47;;;10.30;99.90;;;;;;5014457;28;20218;-84
2024/02/06 04:24:28;;;;;;;12.60;4.07;;;10.30;99.90;;;;;;5012263;28;20463;-86
2024/02/06 04:26:54;;;;;;;9.23;4.33;;;10.30;99.90;;;;;;5012218;28;20466;-85
2024/02/06 04:29:19;;;;;;;11.50;5.00;;;10.30;1.00;;;;;;5012178;28;20515;-86
2024/02/06 04:31:47;;;;;;;14.17;5.27;;;10.20;1.00;;;;;;5027695;28;20457;-86
2024/02/06 04:34:13;;;;;;;14.13;5.20;;;10.30;1.00;;;;;;5023109;28;20511;-86
2024/02/06 04:36:40;;;;;;;9.90;4.10;;;10.30;1.00;;;;;;4988694;28;20445;-86
2024/02/06 04:39:06;;;;;;;9.83;5.20;;;10.30;1.10;;;;;;5012193;28;20439;-86
2024/02/06 04:41:38;;;;;;;10.53;4.80;;;10.30;22.60;;;;;;5013782;28;20474;-86
2024/02/06 04:44:04;;;;;;;6.80;4.53;;;10.30;99.90;;;;;;5012013;28;20459;-86
2024/02/06 04:46:30;;;;;;;11.90;4.87;;;10.30;99.90;;;;;;4988265;28;20444;-85
2024/02/06 04:48:57;;;;;;;9.97;5.73;;;10.30;99.90;;;;;;5009778;28;20439;-85
2024/02/06 04:51:25;;;;;;;11.67;5.13;;;10.30;99.90;;;;;;5012719;28;20438;-86
2024/02/06 04:53:51;;;;;;;9.50;4.60;;;10.30;99.90;;;;;;5013000;28;20478;-86
2024/02/06 04:56:22;;;;;;;6.87;4.10;;;10.30;66.50;;;;;;5009294;28;20478;-86
2024/02/06 04:58:49;;;;;;;9.40;4.90;;;10.30;1.10;;;;;;5009578;28;20471;-85
2024/02/06 05:01:20;;;;;;;12.20;4.17;;;10.30;1.10;;;;;;5012331;28;20463;-85
2024/02/06 05:03:46;;;;;;;10.40;5.00;;;10.30;1.00;;;;;;5007228;28;20435;-85
2024/02/06 05:06:13;;;;;;;6.50;4.97;;;10.30;1.00;;;;;;5013132;28;20462;-85
2024/02/06 05:08:41;;;;;;;13.63;5.40;;;10.30;1.00;;;;;;5008647;28;20504;-86
2024/02/06 05:11:08;;;;;;;12.17;5.47;;;10.30;99.90;;;;;;5025695;28;20462;-85
2024/02/06 05:13:34;;;;;;;8.50;4.80;;;10.30;1.00;;;;;;5029112;28;20485;-85
2024/02/06 05:16:00;;;;;;;9.90;5.10;;;10.20;1.00;;;;;;5012350;28;20443;-85
2024/02/06 05:18:26;;;;;;;11.53;4.37;;;10.20;1.00;;;;;;5009917;28;20439;-86
2024/02/06 05:21:01;;;;;;;12.23;4.90;;;10.20;1.00;;;;;;5012245;28;20478;-87
2024/02/06 05:23:27;;;;;;;11.77;6.07;;;10.20;43.20;;;;;;5006555;28;20980;-85
2024/02/06 05:25:54;;;;;;;9.13;5.17;;;10.20;99.90;;;;;;5013544;28;20523;-84
2024/02/06 05:28:20;;;;;;;13.50;5.97;;;10.20;99.90;;;;;;5028082;28;20423;-87
2024/02/06 05:30:46;;;;;;;14.13;5.00;;;10.20;1.00;;;;;;5006959;28;20423;-86
2024/02/06 05:33:12;;;;;;;11.97;5.97;;;10.20;1.00;;;;;;5011603;28;20455;-86
2024/02/06 05:35:38;;;;;;;14.77;5.30;;;10.20;1.00;;;;;;5026856;28;20510;-87
2024/02/06 05:38:04;;;;;;;10.57;5.80;;;10.20;1.00;;;;;;4994322;28;20514;-84
2024/02/06 05:40:30;;;;;;;14.40;6.00;;;10.20;1.00;;;;;;5010279;28;20497;-86
2024/02/06 05:42:56;;;;;;;11.13;4.90;;;10.20;1.00;;;;;;5008774;28;20507;-85
2024/02/06 05:45:22;;;;;;;11.93;4.67;;;10.20;1.00;;;;;;5010062;28;21011;-85
2024/02/06 05:47:48;;;;;;;10.13;4.53;;;10.20;1.00;;;;;;5008982;28;20191;-85
2024/02/06 05:50:14;;;;;;;12.10;5.20;;;10.20;1.00;;;;;;5014804;28;20223;-85
2024/02/06 05:52:41;;;;;;;7.57;4.70;;;10.30;1.00;;;;;;5028146;28;20443;-86
2024/02/06 05:55:08;;;;;;;12.07;4.67;;;10.30;1.00;;;;;;5013372;28;20517;-85
2024/02/06 05:57:34;;;;;;;9.30;5.40;;;10.30;1.00;;;;;;5032184;28;20519;-86
2024/02/06 06:00:04;;;;;;;11.33;4.60;;;10.30;99.90;;;;;;5014568;28;20427;-84
2024/02/06 06:02:30;;;;;;;9.43;4.83;;;10.30;99.90;;;;;;5011680;28;20466;-86
2024/02/06 06:04:56;;;;;;;9.43;5.13;;;10.30;99.90;;;;;;5016013;28;20434;-85
2024/02/06 06:07:22;;;;;;;10.47;4.83;;;10.30;99.90;;;;;;5014601;28;20439;-87
2024/02/06 06:09:49;;;;;;;11.23;5.47;;;10.40;99.90;;;;;;5015901;28;20490;-86
2024/02/06 06:12:15;;;;;;;9.00;5.00;;;10.30;99.90;;;;;;5014882;28;20478;-87
2024/02/06 06:14:44;;;;;;;17.63;5.30;;;10.30;99.90;;;;;;5014511;28;20204;-85
2024/02/06 06:17:10;;;;;;;13.27;5.77;;;10.30;99.90;;;;;;5015812;28;20453;-87
2024/02/06 06:19:36;;;;;;;13.30;5.57;;;10.40;1.00;;;;;;5014971;28;20479;-86
2024/02/06 06:22:06;;;;;;;15.73;6.40;;;10.40;1.00;;;;;;5015737;28;20219;-86
2024/02/06 06:24:33;;;;;;;13.83;6.13;;;10.40;1.00;;;;;;5015121;28;20478;-86
2024/02/06 06:27:02;;;;;;;7.60;5.10;;;10.40;1.00;;;;;;5032349;28;20415;-86
2024/02/06 06:29:30;;;;;;;14.43;5.80;;;10.40;1.00;;;;;;4988752;28;20447;-86
2024/02/06 06:31:58;;;;;;;12.43;5.67;;;10.40;1.00;;;;;;5013367;28;20451;-86
2024/02/06 06:34:24;;;;;;;9.00;4.90;;;10.40;1.00;;;;;;4991502;28;20471;-86
2024/02/06 06:36:50;;;;;;;10.57;5.33;;;10.40;1.00;;;;;;5005104;28;20435;-86
2024/02/06 06:39:17;;;;;;;10.27;5.67;;;10.40;1.00;;;;;;5010264;28;20452;-85
2024/02/06 06:41:45;;;;;;;14.63;6.27;;;10.40;1.00;;;;;;5029717;28;20466;-85
2024/02/06 06:44:11;;;;;;;10.60;5.20;;;10.40;1.00;;;;;;5013149;28;20465;-85
2024/02/06 06:46:37;;;;;;;8.60;5.17;;;10.40;1.00;;;;;;5012959;28;21036;-84
2024/02/06 06:49:03;;;;;;;13.13;6.63;;;10.40;1.00;;;;;;5010757;28;20444;-85
2024/02/06 06:51:29;;;;;;;15.40;5.77;;;10.40;51.30;;;;;;5013322;28;20432;-85
2024/02/06 06:54:00;;;;;;;14.30;5.70;;;10.40;1.00;;;;;;5013881;28;20479;-85
2024/02/06 06:56:26;;;;;;;8.70;5.03;;;10.50;1.00;;;;;;5030882;28;20171;-86
2024/02/06 06:58:51;;;;;;;7.90;5.10;;;10.50;1.00;;;;;;5026926;28;20444;-85
2024/02/06 07:01:17;;;;;;;14.60;4.93;;;10.50;1.00;;;;;;5004259;28;20484;-88
2024/02/06 07:03:42;;;;;;;10.40;5.10;;;10.50;1.00;;;;;;5004625;28;20283;-82
2024/02/06 07:06:08;;;;;;;9.87;5.97;;;10.50;1.00;;;;;;4997352;28;20185;-87
2024/02/06 07:08:34;;;;;;;17.70;6.40;;;10.50;1.00;;;;;;4999490;28;20202;-84
2024/02/06 07:11:00;;;;;;;13.30;6.40;;;10.60;99.90;;;;;;4999801;28;20608;-84
2024/02/06 07:13:25;;;;;;;6.97;5.00;;;10.60;99.90;;;;;;5000683;28;20495;-85
2024/02/06 07:15:51;;;;;;;9.57;5.37;;;10.60;99.90;;;;;;5000945;28;20252;-84
2024/02/06 07:18:16;;;;;;;12.73;6.53;;;10.60;99.90;;;;;;4996606;28;20219;-85
2024/02/06 07:20:42;;;;;;;9.93;5.77;;;10.60;99.90;;;;;;5001284;28;20220;-84
2024/02/06 07:23:07;;;;;;;14.57;5.90;;;10.60;99.90;;;;;;4995005;28;20217;-86
2024/02/06 07:25:33;;;;;;;18.23;6.87;;;10.60;99.90;;;;;;5003762;28;20223;-86
2024/02/06 07:28:00;;;;;;;13.60;5.70;;;10.70;99.90;;;;;;5001191;28;20267;-85
2024/02/06 07:30:26;;;;;;;11.60;5.93;;;10.70;99.90;;;;;;4996476;28;20646;-85
2024/02/06 07:32:51;;;;;;;9.97;6.10;;;10.70;99.90;;;;;;4997424;28;20449;-85
2024/02/06 07:35:17;;;;;;;9.97;5.17;;;10.70;99.90;;;;;;4999941;28;20212;-85
2024/02/06 07:37:43;;;;;;;11.37;5.50;;;10.70;99.90;;;;;;5001139;28;20192;-85
2024/02/06 07:40:09;;;;;;;14.47;5.73;;;10.70;99.90;;;;;;4992663;28;20825;-86
2024/02/06 07:42:34;;;;;;;16.43;6.13;;;10.80;99.90;;;;;;4994544;28;20682;-85
2024/02/06 07:45:00;;;;;;;10.27;5.50;;;10.80;1.00;;;;;;4996634;28;20451;-85
2024/02/06 07:47:25;;;;;;;13.90;4.80;;;10.80;1.00;;;;;;4995905;28;20214;-85
2024/02/06 07:49:51;;;;;;;8.37;4.90;;;10.80;1.00;;;;;;4991755;28;20558;-85
2024/02/06 07:52:17;;;;;;;14.43;5.97;;;10.80;1.00;;;;;;4995413;28;20192;-87
2024/02/06 07:54:42;;;;;;;10.83;5.20;;;10.80;1.00;;;;;;4994059;28;20242;-84
2024/02/06 07:57:08;;;;;;;15.77;5.40;;;10.90;99.90;;;;;;4993017;28;20653;-82
2024/02/06 07:59:34;;;;;;;16.13;4.97;;;10.90;99.90;;;;;;4990487;28;20657;-86
2024/02/06 08:01:59;;;;;;;11.80;5.60;;;10.90;99.90;;;;;;4989677;28;20219;-86
2024/02/06 08:04:25;;;;;;;12.53;4.80;;;11.00;99.90;;;;;;4992411;28;20212;-85
2024/02/06 08:06:51;;;;;;;11.00;5.67;;;11.00;2.00;;;;;;4989061;28;20212;-89
2024/02/06 08:09:18;;;;;;;18.00;5.50;;;11.00;1.00;;;;;;4993058;28;20180;-85
2024/02/06 08:11:43;;;;;;;13.53;6.33;;;11.00;1.00;;;;;;4994508;28;20464;-87
2024/02/06 08:14:13;;;;;;;9.10;4.83;;;11.00;1.00;;;;;;4994343;28;20478;-85
2024/02/06 08:16:42;;;;;;;12.17;6.10;;;11.00;1.00;;;;;;4996131;28;20654;-85
2024/02/06 08:19:10;;;;;;;14.53;5.47;;;11.00;1.00;;;;;;4994414;28;20521;-86
2024/02/06 08:21:36;;;;;;;13.80;7.90;;;11.10;1.00;;;;;;4995136;28;20537;-87
2024/02/06 08:24:02;;;;;;;12.50;4.63;;;11.00;1.00;;;;;;5009049;28;20458;-86
2024/02/06 08:26:30;;;;;;;16.70;6.33;;;11.10;1.00;;;;;;4993547;28;21216;-86
2024/02/06 08:28:56;;;;;;;8.73;4.70;;;11.10;1.00;;;;;;4991507;28;20199;-86
2024/02/06 08:31:22;;;;;;;12.33;4.80;;;11.10;1.00;;;;;;4992773;28;20431;-86
2024/02/06 08:33:51;;;;;;;12.37;4.60;;;11.10;1.00;;;;;;4997880;28;20622;-86
2024/02/06 08:36:17;;;;;;;11.00;5.10;;;11.10;1.00;;;;;;4993498;28;20439;-86
2024/02/06 08:38:42;;;;;;;10.10;5.60;;;11.10;1.00;;;;;;4998733;28;20439;-85
2024/02/06 08:41:08;;;;;;;13.23;6.00;;;11.10;99.90;;;;;;4988470;28;20473;-86
2024/02/06 08:43:34;;;;;;;7.50;4.97;;;11.10;99.90;;;;;;4994300;28;20265;-86
2024/02/06 08:46:00;;;;;;;15.10;5.53;;;11.10;99.90;;;;;;4996978;28;20207;-87
2024/02/06 08:48:28;;;;;;;11.10;6.03;;;11.20;99.90;;;;;;4989060;28;20176;-86
2024/02/06 08:50:55;;;;;;;10.97;5.17;;;11.20;99.90;;;;;;4995424;28;20443;-85
2024/02/06 08:53:20;;;;;;;12.87;5.07;;;11.20;99.90;;;;;;4996255;28;20459;-85
2024/02/06 08:55:46;;;;;;;11.40;5.97;;;11.30;99.90;;;;;;4998707;28;20527;-86
2024/02/06 08:58:12;;;;;;;17.30;5.80;;;11.20;1.00;;;;;;4997032;28;20195;-86
2024/02/06 09:00:38;;;;;;;11.57;5.53;;;11.20;99.90;;;;;;4982787;28;20215;-87
2024/02/06 09:03:03;;;;;;;14.43;5.43;;;11.20;1.00;;;;;;4995352;28;20459;-85
2024/02/06 09:05:29;;;;;;;18.93;6.17;;;11.20;1.00;;;;;;4997306;28;20267;-85
2024/02/06 09:07:55;;;;;;;11.33;5.40;;;11.20;1.00;;;;;;4999218;28;20184;-85
2024/02/06 09:10:20;;;;;;;11.70;5.27;;;11.20;99.90;;;;;;4999387;28;20209;-85
2024/02/06 09:12:46;;;;;;;16.33;4.73;;;11.20;99.90;;;;;;4997939;28;20450;-84
2024/02/06 09:15:12;;;;;;;6.97;4.40;;;11.20;68.50;;;;;;4998666;28;20188;-86
2024/02/06 09:17:38;;;;;;;18.20;6.03;;;11.20;1.60;;;;;;4996466;28;20199;-85
2024/02/06 09:20:05;;;;;;;12.43;5.47;;;11.20;1.00;;;;;;4997140;28;20790;-85
2024/02/06 09:22:31;;;;;;;17.30;5.87;;;11.20;1.00;;;;;;4995485;28;20210;-86
2024/02/06 09:24:56;;;;;;;11.00;4.87;;;11.30;1.00;;;;;;4997294;28;20526;-86
2024/02/06 09:27:22;;;;;;;15.00;5.03;;;11.30;1.00;;;;;;4990975;28;20677;-85
2024/02/06 09:29:47;;;;;;;11.87;5.70;;;11.30;1.00;;;;;;4993113;28;20206;-86
2024/02/06 09:32:14;;;;;;;9.47;4.30;;;11.30;1.00;;;;;;5000725;28;20226;-85
2024/02/06 09:34:39;;;;;;;15.63;5.80;;;11.30;1.00;;;;;;5001889;28;20230;-83
2024/02/06 09:37:05;;;;;;;13.97;5.30;;;11.30;1.00;;;;;;5000326;28;20526;-84
2024/02/06 09:39:31;;;;;;;10.83;5.50;;;11.40;1.00;;;;;;4993162;28;20263;-86
2024/02/06 09:42:01;;;;;;;17.77;5.20;;;11.40;1.00;;;;;;5002589;28;20210;-85
2024/02/06 09:44:32;;;;;;;11.40;5.30;;;11.40;1.00;;;;;;5000784;28;20218;-83
2024/02/06 09:46:59;;;;;;;10.50;5.90;;;11.40;1.00;;;;;;4994040;28;20440;-85
2024/02/06 09:49:25;;;;;;;11.63;5.37;;;11.40;1.00;;;;;;4998840;28;20442;-85
2024/02/06 09:51:52;;;;;;;11.60;5.00;;;11.40;1.00;;;;;;4995509;28;20439;-84
2024/02/06 09:54:22;;;;;;;10.73;5.00;;;11.50;99.90;;;;;;5001011;28;20885;-84
2024/02/06 09:56:49;;;;;;;10.30;5.57;;;11.50;99.90;;;;;;5001157;28;20435;-85
2024/02/06 09:59:16;;;;;;;22.10;7.17;;;11.50;99.90;;;;;;4997575;28;20415;-86
2024/02/06 10:01:42;;;;;;;9.80;5.60;;;11.50;1.00;;;;;;4994574;28;20466;-86
2024/02/06 10:04:10;;;;;;;9.60;5.93;;;11.50;99.90;;;;;;4999660;28;20622;-83
2024/02/06 10:06:36;;;;;;;11.03;5.20;;;11.60;1.00;;;;;;4998618;28;20501;-83
2024/02/06 10:09:02;;;;;;;16.43;6.80;;;11.70;28.70;;;;;;5000329;28;20845;-84
2024/02/06 10:11:33;;;;;;;11.00;6.10;;;11.70;1.00;;;;;;5001329;28;20212;-84
2024/02/06 10:14:00;;;;;;;16.60;7.07;;;11.60;1.00;;;;;;4999253;28;20498;-83
2024/02/06 10:16:25;;;;;;;11.43;5.47;;;11.70;1.00;;;;;;4997193;28;20439;-85
2024/02/06 10:18:56;;;;;;;14.87;6.30;;;11.70;1.00;;;;;;4993560;28;20893;-85
2024/02/06 10:21:22;;;;;;;13.70;6.07;;;11.70;44.50;;;;;;4999878;28;20290;-83
2024/02/06 10:23:48;;;;;;;10.30;6.57;;;11.70;1.00;;;;;;4998350;28;20486;-83
2024/02/06 10:26:21;;;;;;;10.53;6.10;;;11.70;1.00;;;;;;4999451;28;20183;-84
2024/02/06 10:28:46;;;;;;;15.97;5.83;;;11.70;1.00;;;;;;4998315;28;20423;-85
2024/02/06 10:31:12;;;;;;;9.17;5.40;;;11.70;99.90;;;;;;4996934;28;20462;-84
2024/02/06 10:33:38;;;;;;;12.87;5.37;;;11.80;99.90;;;;;;4999094;28;20290;-85
2024/02/06 10:36:04;;;;;;;11.57;6.47;;;11.80;99.90;;;;;;4998668;28;20868;-84
2024/02/06 10:38:30;;;;;;;11.07;5.00;;;11.70;99.90;;;;;;4989837;28;20781;-84
2024/02/06 10:40:57;;;;;;;13.00;6.10;;;11.70;99.90;;;;;;4998781;28;20517;-84
2024/02/06 10:43:29;;;;;;;11.77;5.73;;;11.70;99.90;;;;;;4997322;28;20534;-84
2024/02/06 10:46:01;;;;;;;10.50;5.97;;;11.70;1.00;;;;;;4997934;28;20439;-85
2024/02/06 10:48:27;;;;;;;12.50;5.77;;;11.80;99.90;;;;;;4997654;28;20935;-84
2024/02/06 10:51:03;;;;;;;8.23;5.30;;;11.90;99.90;;;;;;4998598;28;20798;-86
2024/02/06 10:53:29;;;;;;;10.80;5.53;;;12.00;1.00;;;;;;4994726;28;20461;-85
2024/02/06 10:56:05;;;;;;;7.33;5.60;;;12.20;1.00;;;;;;4995652;28;20432;-85
2024/02/06 10:58:42;;;;;;;20.13;6.27;;;12.30;99.90;;;;;;4997250;28;20179;-85
2024/02/06 11:01:11;;;;;;;11.10;6.83;;;12.30;11.30;;;;;;5000062;28;20516;-84
2024/02/06 11:03:43;;;;;;;15.23;6.30;;;12.20;99.90;;;;;;4992138;28;20465;-84
2024/02/06 11:06:18;;;;;;;11.50;6.23;;;12.20;99.90;;;;;;4994897;28;20423;-85
2024/02/06 11:08:46;;;;;;;16.00;6.23;;;12.10;99.90;;;;;;4997881;28;20505;-86
2024/02/06 11:11:13;;;;;;;21.00;8.23;;;12.10;99.90;;;;;;4997687;28;20443;-86
2024/02/06 11:13:46;;;;;;;14.63;6.43;;;12.00;1.00;;;;;;4997876;28;20450;-85
2024/02/06 11:16:16;;;;;;;18.13;6.93;;;12.00;99.90;;;;;;4998634;28;20415;-83
2024/02/06 11:19:13;;;;;;;13.87;6.13;;;11.90;1.00;;;;;;4996551;28;20419;-86
2024/02/06 11:21:42;;;;;;;17.13;7.00;;;11.90;1.00;;;;;;4994198;28;20467;-86
2024/02/06 11:24:10;;;;;;;15.20;8.17;;;11.90;1.00;;;;;;4997159;28;20442;-83
2024/02/06 11:26:39;;;;;;;12.40;6.20;;;11.90;1.00;;;;;;4997100;28;20518;-85
2024/02/06 11:29:06;;;;;;;22.17;7.43;;;12.00;99.90;;;;;;4998085;28;20439;-83
2024/02/06 11:31:36;;;;;;;13.07;6.93;;;12.10;1.00;;;;;;4999257;28;20407;-85
2024/02/06 11:34:12;;;;;;;9.30;6.30;;;12.10;1.00;;;;;;4999810;28;20438;-86
2024/02/06 11:36:37;;;;;;;12.30;6.20;;;12.20;1.00;;;;;;5002501;28;20446;-86
2024/02/06 11:39:07;;;;;;;17.73;7.50;;;12.10;1.00;;;;;;5003533;28;20433;-84
2024/02/06 11:41:36;;;;;;;14.30;8.07;;;12.00;1.00;;;;;;4999809;28;20203;-85
2024/02/06 11:44:12;;;;;;;17.73;7.40;;;12.00;90.20;;;;;;5000710;28;20477;-85
2024/02/06 11:46:42;;;;;;;16.13;8.30;;;12.00;1.00;;;;;;4990781;28;20466;-86
2024/02/06 11:49:08;;;;;;;16.03;6.30;;;12.00;21.80;;;;;;4999792;28;20435;-87
2024/02/06 11:51:37;;;;;;;18.93;6.97;;;12.00;99.90;;;;;;4998975;28;20422;-85
2024/02/06 11:54:11;;;;;;;13.10;7.33;;;12.10;1.00;;;;;;4998222;28;20550;-83
2024/02/06 11:56:59;;;;;;;14.17;6.77;;;12.10;1.00;;;;;;4997378;28;20462;-86
2024/02/06 11:59:24;;;;;;;16.00;6.67;;;12.20;99.90;;;;;;4999611;28;20455;-83
2024/02/06 12:01:50;;;;;;;18.13;6.20;;;12.20;99.90;;;;;;4999732;28;20455;-84
2024/02/06 12:04:25;;;;;;;10.80;6.60;;;12.20;99.90;;;;;;4997828;28;20211;-85
2024/02/06 12:06:51;;;;;;;13.90;6.50;;;12.20;99.90;;;;;;4997592;28;20552;-83
2024/02/06 12:09:16;;;;;;;17.03;6.00;;;12.10;99.90;;;;;;4996916;28;20426;-83
2024/02/06 12:11:43;;;;;;;14.60;5.17;;;12.10;99.90;;;;;;4996652;28;20657;-85
2024/02/06 12:14:14;;;;;;;10.47;6.13;;;12.10;99.90;;;;;;4992180;28;20644;-84
2024/02/06 12:16:42;;;;;;;14.60;6.00;;;12.20;99.90;;;;;;4990127;28;20825;-83
2024/02/06 12:19:09;;;;;;;14.37;6.50;;;12.20;99.90;;;;;;4997295;28;20510;-86
2024/02/06 12:21:34;;;;;;;15.00;6.67;;;12.40;42.20;;;;;;4996492;28;20470;-86
2024/02/06 12:24:04;;;;;;;14.60;6.63;;;12.40;1.00;;;;;;4997439;28;20489;-84
2024/02/06 12:26:31;;;;;;;18.87;5.93;;;12.50;1.00;;;;;;4996987;28;20271;-85
2024/02/06 12:29:02;;;;;;;12.83;5.37;;;12.90;99.90;;;;;;4995239;28;20999;-85
2024/02/06 12:31:28;;;;;;;14.97;6.60;;;13.20;1.00;;;;;;4994498;28;20443;-85
2024/02/06 12:33:54;;;;;;;15.10;6.30;;;13.30;1.00;;;;;;5001365;28;20454;-85
2024/02/06 12:36:20;;;;;;;13.93;6.13;;;13.20;1.00;;;;;;4996178;28;20787;-86
2024/02/06 12:38:52;;;;;;;14.97;5.60;;;13.20;1.00;;;;;;4988368;28;20445;-86
2024/02/06 12:41:18;;;;;;;13.47;5.83;;;13.10;1.00;;;;;;4995809;28;20218;-83
2024/02/06 12:43:43;;;;;;;12.30;5.77;;;13.00;1.00;;;;;;4997809;28;20451;-84
2024/02/06 12:46:09;;;;;;;13.03;5.33;;;12.90;1.00;;;;;;4996930;28;20419;-86